createdAt,value
2022-08-22T00:02:28.809Z,78.06
2022-08-22T00:02:55.670Z,82.02
2022-08-22T00:05:53.364Z,81.25
2022-08-22T00:09:28.907Z,84.69
2022-08-22T00:12:54.771Z,87.68
2022-08-22T00:16:24.812Z,90.34
2022-08-22T00:20:03.788Z,85.38
2022-08-22T00:23:55.862Z,87.25
2022-08-22T00:27:22.780Z,87.52
2022-08-22T00:30:46.817Z,90.45
2022-08-22T00:34:23.769Z,92.21
2022-08-22T00:37:52.837Z,91.32
2022-08-22T00:41:24.810Z,90.25
2022-08-22T00:44:56.812Z,95.75
2022-08-22T00:48:36.792Z,99.10
2022-08-22T00:51:59.839Z,99.93
2022-08-22T00:55:25.789Z,99.71
2022-08-22T00:59:23.256Z,100.00
2022-08-22T01:02:52.538Z,99.49
2022-08-22T01:06:21.839Z,97.86
2022-08-22T01:09:49.799Z,96.63
2022-08-22T01:13:30.861Z,98.64
2022-08-22T01:16:53.824Z,99.48
2022-08-22T01:20:16.855Z,98.79
2022-08-22T01:24:04.790Z,99.06
2022-08-22T01:27:45.893Z,100.00
2022-08-22T01:31:26.776Z,99.15
2022-08-22T01:34:56.808Z,95.34
2022-08-22T01:38:23.862Z,91.46
2022-08-22T01:41:52.852Z,91.70
2022-08-22T01:45:18.839Z,90.15
2022-08-22T01:48:54.792Z,90.14
2022-08-22T01:52:40.873Z,86.48
2022-08-22T01:56:13.806Z,87.70
2022-08-22T01:59:42.461Z,89.08
2022-08-22T02:03:21.819Z,85.34
2022-08-22T02:06:46.848Z,84.74
2022-08-22T02:10:26.842Z,85.57
2022-08-22T02:13:57.873Z,82.96
2022-08-22T02:17:25.790Z,81.44
2022-08-22T02:20:55.846Z,83.09
2022-08-22T02:24:19.802Z,83.50
2022-08-22T02:27:48.842Z,87.11
2022-08-22T02:31:17.795Z,87.16
2022-08-22T02:34:42.845Z,85.25
2022-08-22T02:38:14.848Z,86.13
2022-08-22T02:41:37.833Z,87.06
2022-08-22T02:45:04.834Z,88.16
2022-08-22T02:48:45.825Z,89.58
2022-08-22T02:52:48.838Z,91.57
2022-08-22T02:56:25.863Z,92.55
2022-08-22T02:59:53.826Z,96.72
2022-08-22T03:03:22.517Z,100.00
2022-08-22T03:06:52.830Z,100.00
2022-08-22T03:10:33.852Z,100.00
2022-08-22T03:14:04.811Z,100.00
2022-08-22T03:17:33.885Z,100.00
2022-08-22T03:20:56.880Z,100.00
2022-08-22T03:24:26.828Z,96.66
2022-08-22T03:27:48.224Z,94.79
2022-08-22T03:31:13.848Z,93.67
2022-08-22T03:34:38.870Z,91.54
2022-08-22T03:38:00.891Z,96.76
2022-08-22T03:41:25.834Z,96.76
2022-08-22T03:45:01.935Z,92.54
2022-08-22T03:48:46.884Z,94.34
2022-08-22T03:52:27.842Z,94.19
2022-08-22T03:55:54.890Z,84.17
2022-08-22T03:59:34.864Z,82.68
2022-08-22T04:03:18.888Z,84.82
2022-08-22T04:07:00.852Z,83.23
2022-08-22T04:10:34.904Z,87.53
2022-08-22T04:14:04.842Z,89.53
2022-08-22T04:17:35.881Z,89.99
2022-08-22T04:21:10.850Z,89.18
2022-08-22T04:24:37.914Z,86.21
2022-08-22T04:28:12.871Z,84.66
2022-08-22T04:31:37.938Z,82.73
2022-08-22T04:35:10.865Z,85.70
2022-08-22T04:38:55.930Z,83.26
2022-08-22T04:42:33.300Z,83.72
2022-08-22T04:45:58.940Z,82.72
2022-08-22T04:49:38.965Z,83.78
2022-08-22T04:53:07.921Z,83.45
2022-08-22T04:56:34.917Z,84.57
2022-08-22T04:59:57.891Z,86.15
2022-08-22T05:03:22.923Z,84.99
2022-08-22T05:06:47.922Z,85.99
2022-08-22T05:10:14.918Z,86.71
2022-08-22T05:13:48.898Z,85.76
2022-08-22T05:17:12.924Z,85.54
2022-08-22T05:20:39.882Z,85.40
2022-08-22T05:24:05.909Z,82.86
2022-08-22T05:27:38.916Z,83.78
2022-08-22T05:31:01.952Z,81.75
2022-08-22T05:34:36.938Z,84.27
2022-08-22T05:38:00.927Z,82.48
2022-08-22T05:41:25.960Z,86.84
2022-08-22T05:44:50.931Z,84.64
2022-08-22T05:48:24.931Z,85.36
2022-08-22T05:51:50.940Z,82.93
2022-08-22T05:55:19.929Z,83.68
2022-08-22T05:58:45.963Z,84.85
2022-08-22T06:02:21.294Z,86.35
2022-08-22T06:05:45.921Z,82.30
2022-08-22T06:09:34.889Z,83.96
2022-08-22T06:13:01.987Z,83.91
2022-08-22T06:16:47.479Z,85.41
2022-08-22T06:20:11.964Z,87.50
2022-08-22T06:23:37.954Z,89.99
2022-08-22T06:27:01.973Z,89.61
2022-08-22T06:30:26.935Z,91.87
2022-08-22T06:33:51.980Z,92.03
2022-08-22T06:37:17.926Z,92.54
2022-08-22T06:40:40.976Z,94.75
2022-08-22T06:44:04.948Z,96.21
2022-08-22T06:47:32.933Z,98.69
2022-08-22T06:50:57.088Z,98.68
2022-08-22T06:54:20.936Z,99.08
2022-08-22T06:57:45.975Z,97.55
2022-08-22T07:01:13.925Z,95.81
2022-08-22T07:04:39.963Z,95.42
2022-08-22T07:08:02.952Z,95.40
2022-08-22T07:11:29.953Z,94.21
2022-08-22T07:14:59.958Z,94.82
2022-08-22T07:18:30.000Z,94.19
2022-08-22T07:21:57.951Z,95.02
2022-08-22T07:25:24.971Z,95.94
2022-08-22T07:28:58.066Z,99.86
2022-08-22T07:32:21.980Z,100.00
2022-08-22T07:35:55.000Z,100.00
2022-08-22T07:39:25.965Z,100.00
2022-08-22T07:42:55.971Z,100.00
2022-08-22T07:46:27.960Z,100.00
2022-08-22T07:49:51.997Z,100.00
2022-08-22T07:53:41.994Z,100.00
2022-08-22T07:57:09.026Z,100.00
2022-08-22T08:00:32.980Z,100.00
2022-08-22T08:03:57.024Z,100.00
2022-08-22T08:07:20.980Z,100.00
2022-08-22T08:10:47.000Z,100.00
2022-08-22T08:14:07.551Z,100.00
2022-08-22T08:17:32.385Z,100.00
2022-08-22T08:20:55.970Z,100.00
2022-08-22T08:24:19.998Z,100.00
2022-08-22T08:28:04.957Z,100.00
2022-08-22T08:31:49.025Z,100.00
2022-08-22T08:35:11.995Z,100.00
2022-08-22T08:38:36.991Z,100.00
2022-08-22T08:42:02.982Z,100.00
2022-08-22T08:45:32.014Z,100.00
2022-08-22T08:49:01.959Z,100.00
2022-08-22T08:52:52.838Z,100.00
2022-08-22T08:56:19.798Z,100.00
2022-08-22T08:59:52.985Z,100.00
2022-08-22T09:03:30.559Z,100.00
2022-08-22T09:10:51.024Z,100.00
2022-08-22T09:14:34.026Z,100.00
2022-08-22T09:18:07.998Z,100.00
2022-08-22T09:21:46.029Z,100.00
2022-08-22T09:25:27.186Z,100.00
2022-08-22T09:29:03.050Z,100.00
2022-08-22T09:32:28.993Z,100.00
2022-08-22T09:36:05.405Z,100.00
2022-08-22T09:39:33.033Z,100.00
2022-08-22T09:43:23.999Z,100.00
2022-08-22T09:46:58.059Z,100.00
2022-08-22T09:50:29.496Z,100.00
2022-08-22T09:54:12.008Z,100.00
2022-08-22T09:57:37.969Z,100.00
2022-08-22T10:01:12.107Z,100.00
2022-08-22T10:04:38.003Z,100.00
2022-08-22T10:08:26.165Z,100.00
2022-08-22T10:11:54.010Z,100.00
2022-08-22T10:15:36.041Z,100.00
2022-08-22T10:19:19.014Z,100.00
2022-08-22T10:22:44.586Z,100.00
2022-08-22T10:26:26.088Z,100.00
2022-08-22T10:30:02.078Z,100.00
2022-08-22T10:33:30.034Z,100.00
2022-08-22T10:37:14.055Z,100.00
2022-08-22T10:40:55.651Z,100.00
2022-08-22T10:44:41.028Z,100.00
2022-08-22T10:48:13.081Z,100.00
2022-08-22T10:51:41.023Z,100.00
2022-08-22T10:55:09.909Z,100.00
2022-08-22T10:58:39.042Z,100.00
2022-08-22T11:02:21.053Z,100.00
2022-08-22T11:05:54.041Z,100.00
2022-08-22T11:09:21.051Z,100.00
2022-08-22T11:12:49.044Z,100.00
2022-08-22T11:16:15.035Z,100.00
2022-08-22T11:19:53.046Z,100.00
2022-08-22T11:23:36.059Z,100.00
2022-08-22T11:27:25.439Z,100.00
2022-08-22T11:31:07.495Z,100.00
2022-08-22T11:34:49.025Z,100.00
2022-08-22T11:38:18.086Z,100.00
2022-08-22T11:41:43.012Z,100.00
2022-08-22T11:45:16.826Z,100.00
2022-08-22T11:48:47.083Z,100.00
2022-08-22T11:52:31.049Z,100.00
2022-08-22T11:56:14.094Z,100.00
2022-08-22T11:59:40.238Z,100.00
2022-08-22T12:03:24.110Z,100.00
2022-08-22T12:07:00.089Z,100.00
2022-08-22T12:10:26.015Z,100.00
2022-08-22T12:13:52.088Z,100.00
2022-08-22T12:17:49.265Z,100.00
2022-08-22T12:21:17.075Z,100.00
2022-08-22T12:24:50.061Z,100.00
2022-08-22T12:28:33.083Z,100.00
2022-08-22T12:32:15.073Z,100.00
2022-08-22T12:35:42.079Z,100.00
2022-08-22T12:39:17.294Z,100.00
2022-08-22T12:42:46.178Z,100.00
2022-08-22T12:46:13.107Z,100.00
2022-08-22T12:49:49.950Z,100.00
2022-08-22T12:53:25.096Z,100.00
2022-08-22T12:57:23.445Z,100.00
2022-08-22T13:00:42.177Z,100.00
2022-08-22T13:04:09.084Z,100.00
2022-08-22T13:07:52.113Z,100.00
2022-08-22T13:11:23.700Z,100.00
2022-08-22T13:14:48.088Z,100.00
2022-08-22T13:18:29.487Z,100.00
2022-08-22T13:21:55.092Z,100.00
2022-08-22T13:25:26.179Z,100.00
2022-08-22T13:29:25.805Z,100.00
2022-08-22T13:32:51.083Z,100.00
2022-08-22T13:36:23.141Z,100.00
2022-08-22T13:39:51.172Z,100.00
2022-08-22T13:43:21.117Z,100.00
2022-08-22T13:47:10.815Z,100.00
2022-08-22T13:50:29.077Z,100.00
2022-08-22T13:54:00.763Z,100.00
2022-08-22T13:57:33.088Z,100.00
2022-08-22T14:01:09.107Z,100.00
2022-08-22T14:04:49.113Z,100.00
2022-08-22T14:08:31.144Z,100.00
2022-08-22T14:11:56.128Z,100.00
2022-08-22T14:15:20.104Z,100.00
2022-08-22T14:18:50.116Z,100.00
2022-08-22T14:22:14.357Z,100.00
2022-08-22T14:25:39.213Z,100.00
2022-08-22T14:29:04.091Z,100.00
2022-08-22T14:32:35.055Z,100.00
2022-08-22T14:36:02.116Z,100.00
2022-08-22T14:39:26.125Z,100.00
2022-08-22T14:43:12.113Z,100.00
2022-08-22T14:46:45.114Z,100.00
2022-08-22T14:50:17.109Z,100.00
2022-08-22T14:53:44.109Z,100.00
2022-08-22T14:57:10.104Z,100.00
2022-08-22T15:00:50.064Z,100.00
2022-08-22T15:04:19.494Z,100.00
2022-08-22T15:07:46.127Z,100.00
2022-08-22T15:11:21.117Z,100.00
2022-08-22T15:14:52.374Z,100.00
2022-08-22T15:18:16.165Z,100.00
2022-08-22T15:21:37.200Z,100.00
2022-08-22T15:25:09.130Z,100.00
2022-08-22T15:28:52.583Z,100.00
2022-08-22T15:32:17.120Z,100.00
2022-08-22T15:35:46.130Z,100.00
2022-08-22T15:39:10.119Z,100.00
2022-08-22T15:42:40.132Z,100.00
2022-08-22T15:46:07.172Z,100.00
2022-08-22T15:49:37.109Z,100.00
2022-08-22T15:53:27.206Z,100.00
2022-08-22T15:56:57.125Z,100.00
2022-08-22T16:00:44.933Z,100.00
2022-08-22T16:04:10.098Z,100.00
2022-08-22T16:07:39.148Z,100.00
2022-08-22T16:11:07.155Z,100.00
2022-08-22T16:14:37.213Z,100.00
2022-08-22T16:18:01.155Z,100.00
2022-08-22T16:21:30.130Z,100.00
2022-08-22T16:25:13.178Z,100.00
2022-08-22T16:28:57.951Z,100.00
2022-08-22T16:32:23.166Z,100.00
2022-08-22T16:36:04.245Z,100.00
2022-08-22T16:39:36.139Z,100.00
2022-08-22T16:43:00.136Z,100.00
2022-08-22T16:46:41.176Z,100.00
2022-08-22T16:50:04.161Z,100.00
2022-08-22T16:53:35.184Z,100.00
2022-08-22T16:57:01.168Z,100.00
2022-08-22T17:00:29.164Z,100.00
2022-08-22T17:03:58.189Z,100.00
2022-08-22T17:07:29.146Z,100.00
2022-08-22T17:10:56.130Z,100.00
2022-08-22T17:14:34.130Z,100.00
2022-08-22T17:18:11.534Z,100.00
2022-08-22T17:21:59.169Z,100.00
2022-08-22T17:25:37.157Z,100.00
2022-08-22T17:29:07.119Z,100.00
2022-08-22T17:32:44.125Z,100.00
2022-08-22T17:36:34.253Z,100.00
2022-08-22T17:40:03.190Z,100.00
2022-08-22T17:43:49.299Z,100.00
2022-08-22T17:47:16.149Z,100.00
2022-08-22T17:50:46.196Z,100.00
2022-08-22T17:54:09.158Z,100.00
2022-08-22T17:57:53.151Z,100.00
2022-08-22T18:01:22.194Z,100.00
2022-08-22T18:04:50.191Z,100.00
2022-08-22T18:12:00.145Z,100.00
2022-08-22T18:15:28.177Z,100.00
2022-08-22T18:18:55.198Z,100.00
2022-08-22T18:22:20.181Z,100.00
2022-08-22T18:25:46.115Z,100.00
2022-08-22T18:29:15.156Z,100.00
2022-08-22T18:32:56.261Z,100.00
2022-08-22T18:36:28.213Z,100.00
2022-08-22T18:40:15.252Z,100.00
2022-08-22T18:43:43.177Z,100.00
2022-08-22T18:47:07.167Z,100.00
2022-08-22T18:50:46.210Z,100.00
2022-08-22T18:54:15.171Z,100.00
2022-08-22T18:57:55.165Z,100.00
2022-08-22T19:01:21.278Z,100.00
2022-08-22T19:05:20.182Z,100.00
2022-08-22T19:08:49.330Z,100.00
2022-08-22T19:12:17.207Z,100.00
2022-08-22T19:15:59.219Z,100.00
2022-08-22T19:19:23.755Z,100.00
2022-08-22T19:22:45.215Z,100.00
2022-08-22T19:26:33.137Z,100.00
2022-08-22T19:29:49.184Z,100.00
2022-08-22T19:33:14.156Z,100.00
2022-08-22T19:36:45.155Z,100.00
2022-08-22T19:40:15.340Z,100.00
2022-08-22T19:43:40.213Z,96.52
2022-08-22T19:47:14.286Z,93.80
2022-08-22T19:50:37.231Z,89.03
2022-08-22T19:54:02.226Z,85.41
2022-08-22T19:57:28.190Z,86.27
2022-08-22T20:00:57.233Z,97.82
2022-08-22T20:04:28.195Z,100.00
2022-08-22T20:08:01.203Z,100.00
2022-08-22T20:11:39.206Z,100.00
2022-08-22T20:15:02.251Z,100.00
2022-08-22T20:19:05.136Z,98.78
2022-08-22T20:22:12.246Z,98.32
2022-08-22T20:25:42.488Z,97.50
2022-08-22T20:29:08.301Z,97.76
2022-08-22T20:32:32.248Z,98.50
2022-08-22T20:35:56.191Z,98.19
2022-08-22T20:39:23.230Z,96.46
2022-08-22T20:42:40.217Z,96.37
2022-08-22T20:46:27.243Z,94.43
2022-08-22T20:49:51.254Z,94.36
2022-08-22T20:53:28.235Z,92.41
2022-08-22T20:56:53.505Z,90.33
2022-08-22T21:00:21.196Z,89.76
2022-08-22T21:03:56.217Z,88.06
2022-08-22T21:07:18.200Z,88.48
2022-08-22T21:11:01.246Z,87.71
2022-08-22T21:14:34.187Z,86.10
2022-08-22T21:17:57.238Z,84.09
2022-08-22T21:21:27.254Z,84.62
2022-08-22T21:24:43.807Z,83.53
2022-08-22T21:28:03.243Z,82.54
2022-08-22T21:31:28.209Z,80.36
2022-08-22T21:34:58.357Z,78.72
2022-08-22T21:38:21.217Z,79.68
2022-08-22T21:41:49.229Z,78.84
2022-08-22T21:45:13.250Z,78.00
2022-08-22T21:48:47.236Z,75.54
2022-08-22T21:52:11.214Z,75.22
2022-08-22T21:55:47.278Z,76.08
2022-08-22T21:59:51.450Z,75.94
2022-08-22T22:03:29.292Z,74.55
2022-08-22T22:06:52.275Z,74.41
2022-08-22T22:10:15.301Z,72.67
2022-08-22T22:13:40.281Z,74.00
2022-08-22T22:17:03.226Z,73.46
2022-08-22T22:20:27.290Z,75.55
2022-08-22T22:23:43.814Z,70.44
2022-08-22T22:27:01.291Z,69.67
2022-08-22T22:30:24.271Z,68.07
2022-08-22T22:33:48.300Z,65.78
2022-08-22T22:37:12.233Z,63.48
2022-08-22T22:40:35.267Z,63.90
2022-08-22T22:43:59.299Z,64.48
2022-08-22T22:47:23.247Z,62.73
2022-08-22T22:50:49.320Z,60.48
2022-08-22T22:54:13.270Z,61.34
2022-08-22T22:57:41.424Z,59.44
2022-08-22T23:01:07.321Z,60.27
2022-08-22T23:04:30.308Z,57.40
2022-08-22T23:07:54.277Z,58.30
2022-08-22T23:11:23.327Z,55.46
2022-08-22T23:14:46.287Z,55.77
2022-08-22T23:18:10.279Z,54.36
2022-08-22T23:21:36.268Z,56.83
2022-08-22T23:24:59.278Z,55.74
2022-08-22T23:28:22.267Z,56.13
2022-08-22T23:31:46.342Z,56.46
2022-08-22T23:35:11.335Z,56.32
2022-08-22T23:38:34.246Z,55.80
2022-08-22T23:41:57.296Z,58.72
2022-08-22T23:45:20.249Z,65.05
2022-08-22T23:48:43.331Z,62.66
2022-08-22T23:52:06.297Z,60.38
2022-08-22T23:55:29.341Z,63.79
2022-08-22T23:58:53.343Z,64.66
